sensor_id;sensor_type;location;lat;lon;timestamp;P1;durP1;ratioP1;P2;durP2;ratioP2
16101;SDS011;56411;52.964;10.540;2023-05-07T00:00:22;14.40;;;9.50;;
16101;SDS011;56411;52.964;10.540;2023-05-07T00:02:49;15.03;;;9.40;;
16101;SDS011;56411;52.964;10.540;2023-05-07T00:05:16;15.57;;;10.03;;
16101;SDS011;56411;52.964;10.540;2023-05-07T00:07:43;15.57;;;10.03;;
16101;SDS011;56411;52.964;10.540;2023-05-07T00:10:10;15.30;;;9.90;;
16101;SDS011;56411;52.964;10.540;2023-05-07T00:12:40;14.03;;;9.20;;
16101;SDS011;56411;52.964;10.540;2023-05-07T00:15:10;14.57;;;10.10;;
16101;SDS011;56411;52.964;10.540;2023-05-07T00:17:37;14.90;;;9.83;;
16101;SDS011;56411;52.964;10.540;2023-05-07T00:20:05;15.30;;;9.90;;
16101;SDS011;56411;52.964;10.540;2023-05-07T00:22:32;14.17;;;9.40;;
16101;SDS011;56411;52.964;10.540;2023-05-07T00:25:00;13.70;;;9.10;;
16101;SDS011;56411;52.964;10.540;2023-05-07T00:27:28;14.60;;;9.47;;
16101;SDS011;56411;52.964;10.540;2023-05-07T00:29:56;14.83;;;9.20;;
16101;SDS011;56411;52.964;10.540;2023-05-07T00:32:23;14.17;;;9.23;;
16101;SDS011;56411;52.964;10.540;2023-05-07T00:34:50;14.30;;;9.27;;
16101;SDS011;56411;52.964;10.540;2023-05-07T00:37:17;14.53;;;9.23;;
16101;SDS011;56411;52.964;10.540;2023-05-07T00:39:44;14.37;;;9.33;;
16101;SDS011;56411;52.964;10.540;2023-05-07T00:42:12;14.93;;;9.83;;
16101;SDS011;56411;52.964;10.540;2023-05-07T00:44:40;14.37;;;9.80;;
16101;SDS011;56411;52.964;10.540;2023-05-07T00:47:08;15.13;;;9.77;;
16101;SDS011;56411;52.964;10.540;2023-05-07T00:49:37;15.80;;;10.27;;
16101;SDS011;56411;52.964;10.540;2023-05-07T00:52:06;15.00;;;10.37;;
16101;SDS011;56411;52.964;10.540;2023-05-07T00:54:35;14.67;;;9.73;;
16101;SDS011;56411;52.964;10.540;2023-05-07T00:57:03;14.40;;;10.10;;
16101;SDS011;56411;52.964;10.540;2023-05-07T00:59:31;15.30;;;10.03;;
16101;SDS011;56411;52.964;10.540;2023-05-07T01:01:59;15.83;;;10.47;;
16101;SDS011;56411;52.964;10.540;2023-05-07T01:04:29;16.13;;;11.30;;
16101;SDS011;56411;52.964;10.540;2023-05-07T01:06:56;16.20;;;10.70;;
16101;SDS011;56411;52.964;10.540;2023-05-07T01:09:24;17.60;;;11.20;;
16101;SDS011;56411;52.964;10.540;2023-05-07T01:11:52;17.17;;;11.63;;
16101;SDS011;56411;52.964;10.540;2023-05-07T01:14:22;19.20;;;12.13;;
16101;SDS011;56411;52.964;10.540;2023-05-07T01:16:50;17.97;;;11.93;;
16101;SDS011;56411;52.964;10.540;2023-05-07T01:19:18;17.67;;;11.83;;
16101;SDS011;56411;52.964;10.540;2023-05-07T01:21:48;18.87;;;11.67;;
16101;SDS011;56411;52.964;10.540;2023-05-07T01:24:16;16.10;;;11.10;;
16101;SDS011;56411;52.964;10.540;2023-05-07T01:26:44;16.10;;;11.30;;
16101;SDS011;56411;52.964;10.540;2023-05-07T01:29:11;16.13;;;10.50;;
16101;SDS011;56411;52.964;10.540;2023-05-07T01:31:38;15.33;;;9.97;;
16101;SDS011;56411;52.964;10.540;2023-05-07T01:34:07;15.27;;;9.93;;
16101;SDS011;56411;52.964;10.540;2023-05-07T01:36:36;15.53;;;10.30;;
16101;SDS011;56411;52.964;10.540;2023-05-07T01:39:05;16.33;;;10.50;;
16101;SDS011;56411;52.964;10.540;2023-05-07T01:41:35;15.77;;;10.97;;
16101;SDS011;56411;52.964;10.540;2023-05-07T01:44:03;15.40;;;10.43;;
16101;SDS011;56411;52.964;10.540;2023-05-07T01:46:31;16.17;;;10.93;;
16101;SDS011;56411;52.964;10.540;2023-05-07T01:49:00;15.37;;;10.43;;
16101;SDS011;56411;52.964;10.540;2023-05-07T01:51:27;16.43;;;10.70;;
16101;SDS011;56411;52.964;10.540;2023-05-07T01:53:54;15.23;;;10.03;;
16101;SDS011;56411;52.964;10.540;2023-05-07T01:56:22;16.03;;;10.70;;
16101;SDS011;56411;52.964;10.540;2023-05-07T01:58:50;14.67;;;10.20;;
16101;SDS011;56411;52.964;10.540;2023-05-07T02:01:18;15.23;;;10.53;;
16101;SDS011;56411;52.964;10.540;2023-05-07T02:03:45;15.27;;;10.27;;
16101;SDS011;56411;52.964;10.540;2023-05-07T02:06:12;17.67;;;11.70;;
16101;SDS011;56411;52.964;10.540;2023-05-07T02:08:39;16.60;;;11.37;;
16101;SDS011;56411;52.964;10.540;2023-05-07T02:11:06;16.90;;;11.50;;
16101;SDS011;56411;52.964;10.540;2023-05-07T02:13:33;17.20;;;11.60;;
16101;SDS011;56411;52.964;10.540;2023-05-07T02:16:02;17.23;;;12.20;;
16101;SDS011;56411;52.964;10.540;2023-05-07T02:18:30;17.27;;;11.80;;
16101;SDS011;56411;52.964;10.540;2023-05-07T02:20:58;17.60;;;12.33;;
16101;SDS011;56411;52.964;10.540;2023-05-07T02:23:25;18.33;;;12.70;;
16101;SDS011;56411;52.964;10.540;2023-05-07T02:25:52;18.80;;;13.03;;
16101;SDS011;56411;52.964;10.540;2023-05-07T02:28:19;19.37;;;13.03;;
16101;SDS011;56411;52.964;10.540;2023-05-07T02:30:46;18.30;;;12.43;;
16101;SDS011;56411;52.964;10.540;2023-05-07T02:33:15;18.00;;;12.73;;
16101;SDS011;56411;52.964;10.540;2023-05-07T02:35:42;18.37;;;12.33;;
16101;SDS011;56411;52.964;10.540;2023-05-07T02:38:09;18.87;;;13.23;;
16101;SDS011;56411;52.964;10.540;2023-05-07T02:40:36;19.83;;;13.23;;
16101;SDS011;56411;52.964;10.540;2023-05-07T02:43:05;18.67;;;13.23;;
16101;SDS011;56411;52.964;10.540;2023-05-07T02:45:32;21.37;;;12.80;;
16101;SDS011;56411;52.964;10.540;2023-05-07T02:47:59;17.73;;;12.57;;
16101;SDS011;56411;52.964;10.540;2023-05-07T02:50:28;18.30;;;12.87;;
16101;SDS011;56411;52.964;10.540;2023-05-07T02:52:55;18.47;;;13.03;;
16101;SDS011;56411;52.964;10.540;2023-05-07T02:55:22;19.63;;;13.37;;
16101;SDS011;56411;52.964;10.540;2023-05-07T02:57:49;20.90;;;13.90;;
16101;SDS011;56411;52.964;10.540;2023-05-07T03:00:17;18.80;;;12.90;;
16101;SDS011;56411;52.964;10.540;2023-05-07T03:02:45;18.23;;;12.43;;
16101;SDS011;56411;52.964;10.540;2023-05-07T03:05:12;19.20;;;12.93;;
16101;SDS011;56411;52.964;10.540;2023-05-07T03:07:40;18.57;;;13.40;;
16101;SDS011;56411;52.964;10.540;2023-05-07T03:10:10;18.80;;;12.80;;
16101;SDS011;56411;52.964;10.540;2023-05-07T03:12:37;19.17;;;13.23;;
16101;SDS011;56411;52.964;10.540;2023-05-07T03:15:05;19.13;;;12.93;;
16101;SDS011;56411;52.964;10.540;2023-05-07T03:17:33;19.60;;;13.63;;
16101;SDS011;56411;52.964;10.540;2023-05-07T03:20:01;20.67;;;13.93;;
16101;SDS011;56411;52.964;10.540;2023-05-07T03:22:28;20.03;;;13.87;;
16101;SDS011;56411;52.964;10.540;2023-05-07T03:24:56;20.67;;;14.07;;
16101;SDS011;56411;52.964;10.540;2023-05-07T03:27:23;20.23;;;13.83;;
16101;SDS011;56411;52.964;10.540;2023-05-07T03:29:50;20.00;;;13.27;;
16101;SDS011;56411;52.964;10.540;2023-05-07T03:32:18;19.00;;;12.80;;
16101;SDS011;56411;52.964;10.540;2023-05-07T03:34:45;18.40;;;12.53;;
16101;SDS011;56411;52.964;10.540;2023-05-07T03:37:12;18.87;;;11.97;;
16101;SDS011;56411;52.964;10.540;2023-05-07T03:39:39;18.77;;;12.00;;
16101;SDS011;56411;52.964;10.540;2023-05-07T03:42:07;17.93;;;12.07;;
16101;SDS011;56411;52.964;10.540;2023-05-07T03:44:34;18.47;;;11.87;;
16101;SDS011;56411;52.964;10.540;2023-05-07T03:47:02;17.67;;;12.17;;
16101;SDS011;56411;52.964;10.540;2023-05-07T03:49:29;19.30;;;12.87;;
16101;SDS011;56411;52.964;10.540;2023-05-07T03:51:57;19.30;;;13.23;;
16101;SDS011;56411;52.964;10.540;2023-05-07T03:54:23;19.13;;;12.83;;
16101;SDS011;56411;52.964;10.540;2023-05-07T03:56:51;20.60;;;13.83;;
16101;SDS011;56411;52.964;10.540;2023-05-07T03:59:19;17.60;;;11.97;;
16101;SDS011;56411;52.964;10.540;2023-05-07T04:01:46;19.00;;;12.70;;
16101;SDS011;56411;52.964;10.540;2023-05-07T04:04:13;18.43;;;12.40;;
16101;SDS011;56411;52.964;10.540;2023-05-07T04:06:40;21.43;;;13.73;;
16101;SDS011;56411;52.964;10.540;2023-05-07T04:09:08;19.80;;;12.93;;
16101;SDS011;56411;52.964;10.540;2023-05-07T04:11:35;20.10;;;13.60;;
16101;SDS011;56411;52.964;10.540;2023-05-07T04:14:02;20.77;;;13.70;;
16101;SDS011;56411;52.964;10.540;2023-05-07T04:16:31;20.10;;;13.67;;
16101;SDS011;56411;52.964;10.540;2023-05-07T04:18:58;24.07;;;14.40;;
16101;SDS011;56411;52.964;10.540;2023-05-07T04:21:25;20.37;;;14.23;;
16101;SDS011;56411;52.964;10.540;2023-05-07T04:23:52;21.27;;;13.83;;
16101;SDS011;56411;52.964;10.540;2023-05-07T04:26:19;21.37;;;14.10;;
16101;SDS011;56411;52.964;10.540;2023-05-07T04:28:48;20.40;;;13.53;;
16101;SDS011;56411;52.964;10.540;2023-05-07T04:31:15;21.67;;;13.90;;
16101;SDS011;56411;52.964;10.540;2023-05-07T04:33:44;20.77;;;14.17;;
16101;SDS011;56411;52.964;10.540;2023-05-07T04:36:11;19.57;;;13.40;;
16101;SDS011;56411;52.964;10.540;2023-05-07T04:38:38;21.20;;;13.93;;
16101;SDS011;56411;52.964;10.540;2023-05-07T04:41:06;20.37;;;13.50;;
16101;SDS011;56411;52.964;10.540;2023-05-07T04:43:33;20.57;;;13.70;;
16101;SDS011;56411;52.964;10.540;2023-05-07T04:46:00;20.17;;;13.77;;
16101;SDS011;56411;52.964;10.540;2023-05-07T04:48:27;20.30;;;13.03;;
16101;SDS011;56411;52.964;10.540;2023-05-07T04:50:56;21.27;;;14.63;;
16101;SDS011;56411;52.964;10.540;2023-05-07T04:53:23;22.03;;;13.60;;
16101;SDS011;56411;52.964;10.540;2023-05-07T04:55:54;20.40;;;13.43;;
16101;SDS011;56411;52.964;10.540;2023-05-07T04:58:22;20.87;;;13.90;;
16101;SDS011;56411;52.964;10.540;2023-05-07T05:00:49;21.13;;;14.10;;
16101;SDS011;56411;52.964;10.540;2023-05-07T05:03:16;20.17;;;13.53;;
16101;SDS011;56411;52.964;10.540;2023-05-07T05:05:43;21.70;;;13.83;;
16101;SDS011;56411;52.964;10.540;2023-05-07T05:08:12;20.80;;;13.60;;
16101;SDS011;56411;52.964;10.540;2023-05-07T05:10:39;21.53;;;13.43;;
16101;SDS011;56411;52.964;10.540;2023-05-07T05:13:06;20.73;;;13.23;;
16101;SDS011;56411;52.964;10.540;2023-05-07T05:15:34;20.33;;;13.20;;
16101;SDS011;56411;52.964;10.540;2023-05-07T05:18:01;19.13;;;12.30;;
16101;SDS011;56411;52.964;10.540;2023-05-07T05:20:28;19.63;;;12.07;;
16101;SDS011;56411;52.964;10.540;2023-05-07T05:22:55;20.53;;;12.77;;
16101;SDS011;56411;52.964;10.540;2023-05-07T05:25:24;20.87;;;11.67;;
16101;SDS011;56411;52.964;10.540;2023-05-07T05:27:51;19.27;;;11.93;;
16101;SDS011;56411;52.964;10.540;2023-05-07T05:30:18;18.60;;;12.43;;
16101;SDS011;56411;52.964;10.540;2023-05-07T05:32:45;19.13;;;11.97;;
16101;SDS011;56411;52.964;10.540;2023-05-07T05:35:12;19.90;;;11.93;;
16101;SDS011;56411;52.964;10.540;2023-05-07T05:37:39;20.73;;;13.20;;
16101;SDS011;56411;52.964;10.540;2023-05-07T05:40:07;18.87;;;12.30;;
16101;SDS011;56411;52.964;10.540;2023-05-07T05:42:36;17.83;;;10.90;;
16101;SDS011;56411;52.964;10.540;2023-05-07T05:45:03;18.27;;;11.73;;
16101;SDS011;56411;52.964;10.540;2023-05-07T05:47:30;17.43;;;11.43;;
16101;SDS011;56411;52.964;10.540;2023-05-07T05:49:57;19.07;;;11.80;;
16101;SDS011;56411;52.964;10.540;2023-05-07T05:52:25;17.53;;;11.27;;
16101;SDS011;56411;52.964;10.540;2023-05-07T05:54:53;18.33;;;11.80;;
16101;SDS011;56411;52.964;10.540;2023-05-07T05:57:20;18.50;;;11.80;;
16101;SDS011;56411;52.964;10.540;2023-05-07T05:59:48;18.80;;;12.07;;
16101;SDS011;56411;52.964;10.540;2023-05-07T06:02:15;18.93;;;11.83;;
16101;SDS011;56411;52.964;10.540;2023-05-07T06:04:43;17.27;;;11.53;;
16101;SDS011;56411;52.964;10.540;2023-05-07T06:07:10;18.83;;;11.47;;
16101;SDS011;56411;52.964;10.540;2023-05-07T06:09:37;17.40;;;10.57;;
16101;SDS011;56411;52.964;10.540;2023-05-07T06:12:04;16.30;;;10.30;;
16101;SDS011;56411;52.964;10.540;2023-05-07T06:14:31;16.17;;;10.27;;
16101;SDS011;56411;52.964;10.540;2023-05-07T06:17:00;16.57;;;10.13;;
16101;SDS011;56411;52.964;10.540;2023-05-07T06:19:27;15.93;;;9.93;;
16101;SDS011;56411;52.964;10.540;2023-05-07T06:21:54;15.30;;;10.03;;
16101;SDS011;56411;52.964;10.540;2023-05-07T06:24:27;16.20;;;9.63;;
16101;SDS011;56411;52.964;10.540;2023-05-07T06:26:54;15.93;;;9.73;;
16101;SDS011;56411;52.964;10.540;2023-05-07T06:29:23;16.07;;;9.37;;
16101;SDS011;56411;52.964;10.540;2023-05-07T06:31:51;19.57;;;10.67;;
16101;SDS011;56411;52.964;10.540;2023-05-07T06:34:19;17.27;;;10.13;;
16101;SDS011;56411;52.964;10.540;2023-05-07T06:36:47;16.67;;;9.93;;
16101;SDS011;56411;52.964;10.540;2023-05-07T06:39:14;16.20;;;10.10;;
16101;SDS011;56411;52.964;10.540;2023-05-07T06:41:41;17.23;;;10.63;;
16101;SDS011;56411;52.964;10.540;2023-05-07T06:44:07;15.17;;;9.43;;
16101;SDS011;56411;52.964;10.540;2023-05-07T06:46:36;16.17;;;9.97;;
16101;SDS011;56411;52.964;10.540;2023-05-07T06:49:03;16.57;;;9.87;;
16101;SDS011;56411;52.964;10.540;2023-05-07T06:51:31;15.43;;;9.77;;
16101;SDS011;56411;52.964;10.540;2023-05-07T06:53:58;15.73;;;9.70;;
16101;SDS011;56411;52.964;10.540;2023-05-07T06:56:26;16.33;;;9.67;;
16101;SDS011;56411;52.964;10.540;2023-05-07T06:58:53;16.17;;;9.67;;
16101;SDS011;56411;52.964;10.540;2023-05-07T07:01:20;15.83;;;9.53;;
16101;SDS011;56411;52.964;10.540;2023-05-07T07:03:47;16.33;;;10.57;;
16101;SDS011;56411;52.964;10.540;2023-05-07T07:06:14;16.37;;;10.17;;
16101;SDS011;56411;52.964;10.540;2023-05-07T07:08:42;17.17;;;10.30;;
16101;SDS011;56411;52.964;10.540;2023-05-07T07:11:09;15.70;;;9.87;;
16101;SDS011;56411;52.964;10.540;2023-05-07T07:13:37;16.53;;;10.33;;
16101;SDS011;56411;52.964;10.540;2023-05-07T07:16:05;15.20;;;10.13;;
16101;SDS011;56411;52.964;10.540;2023-05-07T07:18:32;16.20;;;10.20;;
16101;SDS011;56411;52.964;10.540;2023-05-07T07:20:59;17.27;;;11.10;;
16101;SDS011;56411;52.964;10.540;2023-05-07T07:23:26;16.43;;;10.17;;
16101;SDS011;56411;52.964;10.540;2023-05-07T07:25:55;17.33;;;10.60;;
16101;SDS011;56411;52.964;10.540;2023-05-07T07:28:22;16.77;;;10.63;;
16101;SDS011;56411;52.964;10.540;2023-05-07T07:30:49;16.30;;;10.57;;
16101;SDS011;56411;52.964;10.540;2023-05-07T07:33:16;15.43;;;10.70;;
16101;SDS011;56411;52.964;10.540;2023-05-07T07:35:43;17.70;;;10.63;;
16101;SDS011;56411;52.964;10.540;2023-05-07T07:38:10;17.43;;;10.30;;
16101;SDS011;56411;52.964;10.540;2023-05-07T07:40:38;16.30;;;10.27;;
16101;SDS011;56411;52.964;10.540;2023-05-07T07:43:07;15.77;;;10.40;;
16101;SDS011;56411;52.964;10.540;2023-05-07T07:45:34;16.33;;;9.77;;
16101;SDS011;56411;52.964;10.540;2023-05-07T07:48:01;15.60;;;9.77;;
16101;SDS011;56411;52.964;10.540;2023-05-07T07:50:29;15.77;;;9.63;;
16101;SDS011;56411;52.964;10.540;2023-05-07T07:52:56;15.23;;;9.07;;
16101;SDS011;56411;52.964;10.540;2023-05-07T07:55:23;16.03;;;9.53;;
16101;SDS011;56411;52.964;10.540;2023-05-07T07:57:52;15.57;;;9.87;;
16101;SDS011;56411;52.964;10.540;2023-05-07T08:00:21;14.40;;;8.70;;
16101;SDS011;56411;52.964;10.540;2023-05-07T08:02:48;14.47;;;9.17;;
16101;SDS011;56411;52.964;10.540;2023-05-07T08:05:16;13.63;;;8.47;;
16101;SDS011;56411;52.964;10.540;2023-05-07T08:07:43;13.80;;;8.00;;
16101;SDS011;56411;52.964;10.540;2023-05-07T08:10:11;13.37;;;8.00;;
16101;SDS011;56411;52.964;10.540;2023-05-07T08:12:45;14.13;;;8.37;;
16101;SDS011;56411;52.964;10.540;2023-05-07T08:15:13;12.43;;;7.73;;
16101;SDS011;56411;52.964;10.540;2023-05-07T08:17:42;12.87;;;7.87;;
16101;SDS011;56411;52.964;10.540;2023-05-07T08:20:10;12.03;;;7.67;;
16101;SDS011;56411;52.964;10.540;2023-05-07T08:22:37;12.93;;;7.53;;
16101;SDS011;56411;52.964;10.540;2023-05-07T08:25:05;13.80;;;8.30;;
16101;SDS011;56411;52.964;10.540;2023-05-07T08:27:32;13.23;;;8.43;;
16101;SDS011;56411;52.964;10.540;2023-05-07T08:30:00;14.75;;;8.43;;
16101;SDS011;56411;52.964;10.540;2023-05-07T08:32:27;14.00;;;8.20;;
16101;SDS011;56411;52.964;10.540;2023-05-07T08:34:55;13.87;;;8.50;;
16101;SDS011;56411;52.964;10.540;2023-05-07T08:37:23;13.53;;;8.43;;
16101;SDS011;56411;52.964;10.540;2023-05-07T08:39:50;14.33;;;9.03;;
16101;SDS011;56411;52.964;10.540;2023-05-07T08:42:17;14.00;;;8.90;;
16101;SDS011;56411;52.964;10.540;2023-05-07T08:44:45;14.23;;;9.27;;
16101;SDS011;56411;52.964;10.540;2023-05-07T08:47:13;14.23;;;9.33;;
16101;SDS011;56411;52.964;10.540;2023-05-07T08:49:40;14.30;;;8.90;;
16101;SDS011;56411;52.964;10.540;2023-05-07T08:52:09;13.55;;;8.73;;
16101;SDS011;56411;52.964;10.540;2023-05-07T08:54:39;13.67;;;8.83;;
16101;SDS011;56411;52.964;10.540;2023-05-07T08:57:06;14.40;;;8.43;;
16101;SDS011;56411;52.964;10.540;2023-05-07T08:59:33;14.07;;;8.87;;
16101;SDS011;56411;52.964;10.540;2023-05-07T09:02:02;14.27;;;8.18;;
16101;SDS011;56411;52.964;10.540;2023-05-07T09:04:30;15.00;;;9.48;;
16101;SDS011;56411;52.964;10.540;2023-05-07T09:06:58;13.97;;;8.33;;
16101;SDS011;56411;52.964;10.540;2023-05-07T09:09:32;14.53;;;9.20;;
16101;SDS011;56411;52.964;10.540;2023-05-07T09:11:59;15.57;;;9.27;;
16101;SDS011;56411;52.964;10.540;2023-05-07T09:14:27;14.13;;;8.90;;
16101;SDS011;56411;52.964;10.540;2023-05-07T09:16:55;14.20;;;8.10;;
16101;SDS011;56411;52.964;10.540;2023-05-07T09:19:23;14.43;;;9.03;;
16101;SDS011;56411;52.964;10.540;2023-05-07T09:21:57;13.25;;;8.80;;
16101;SDS011;56411;52.964;10.540;2023-05-07T09:24:26;13.07;;;8.40;;
16101;SDS011;56411;52.964;10.540;2023-05-07T09:27:07;12.97;;;8.43;;
16101;SDS011;56411;52.964;10.540;2023-05-07T09:29:38;13.68;;;8.65;;
16101;SDS011;56411;52.964;10.540;2023-05-07T09:32:05;13.87;;;8.23;;
16101;SDS011;56411;52.964;10.540;2023-05-07T09:34:34;13.40;;;8.53;;
16101;SDS011;56411;52.964;10.540;2023-05-07T09:37:02;14.50;;;8.80;;
16101;SDS011;56411;52.964;10.540;2023-05-07T09:39:38;14.77;;;8.63;;
16101;SDS011;56411;52.964;10.540;2023-05-07T09:42:07;13.82;;;8.25;;
16101;SDS011;56411;52.964;10.540;2023-05-07T09:44:35;12.67;;;8.10;;
16101;SDS011;56411;52.964;10.540;2023-05-07T09:47:04;13.80;;;8.73;;
16101;SDS011;56411;52.964;10.540;2023-05-07T09:49:33;14.65;;;9.07;;
16101;SDS011;56411;52.964;10.540;2023-05-07T09:52:02;13.50;;;8.35;;
16101;SDS011;56411;52.964;10.540;2023-05-07T09:54:33;13.90;;;8.37;;
16101;SDS011;56411;52.964;10.540;2023-05-07T09:57:02;15.00;;;8.90;;
16101;SDS011;56411;52.964;10.540;2023-05-07T09:59:33;13.20;;;8.32;;
16101;SDS011;56411;52.964;10.540;2023-05-07T10:02:03;13.88;;;8.75;;
16101;SDS011;56411;52.964;10.540;2023-05-07T10:04:31;13.80;;;8.27;;
16101;SDS011;56411;52.964;10.540;2023-05-07T10:06:58;13.38;;;8.48;;
16101;SDS011;56411;52.964;10.540;2023-05-07T10:09:26;13.00;;;8.43;;
16101;SDS011;56411;52.964;10.540;2023-05-07T10:11:54;14.53;;;8.73;;
16101;SDS011;56411;52.964;10.540;2023-05-07T10:14:22;14.35;;;7.80;;
16101;SDS011;56411;52.964;10.540;2023-05-07T10:16:51;13.27;;;8.40;;
16101;SDS011;56411;52.964;10.540;2023-05-07T10:19:20;13.20;;;8.18;;
16101;SDS011;56411;52.964;10.540;2023-05-07T10:21:51;12.38;;;7.80;;
16101;SDS011;56411;52.964;10.540;2023-05-07T10:24:24;11.60;;;7.30;;
16101;SDS011;56411;52.964;10.540;2023-05-07T10:26:53;12.38;;;7.72;;
16101;SDS011;56411;52.964;10.540;2023-05-07T10:29:25;11.20;;;6.93;;
16101;SDS011;56411;52.964;10.540;2023-05-07T10:32:06;11.68;;;7.07;;
16101;SDS011;56411;52.964;10.540;2023-05-07T10:34:45;13.48;;;8.02;;
16101;SDS011;56411;52.964;10.540;2023-05-07T10:37:14;11.65;;;7.07;;
16101;SDS011;56411;52.964;10.540;2023-05-07T10:39:43;12.15;;;7.07;;
16101;SDS011;56411;52.964;10.540;2023-05-07T10:42:10;12.10;;;6.72;;
16101;SDS011;56411;52.964;10.540;2023-05-07T10:44:39;12.30;;;7.13;;
16101;SDS011;56411;52.964;10.540;2023-05-07T10:47:09;12.50;;;7.00;;
16101;SDS011;56411;52.964;10.540;2023-05-07T10:49:38;10.95;;;6.93;;
16101;SDS011;56411;52.964;10.540;2023-05-07T10:52:42;11.93;;;6.88;;
16101;SDS011;56411;52.964;10.540;2023-05-07T10:55:19;11.68;;;6.68;;
16101;SDS011;56411;52.964;10.540;2023-05-07T10:57:50;11.90;;;7.28;;
16101;SDS011;56411;52.964;10.540;2023-05-07T11:03:09;12.60;;;7.30;;
16101;SDS011;56411;52.964;10.540;2023-05-07T11:05:37;12.07;;;7.15;;
16101;SDS011;56411;52.964;10.540;2023-05-07T11:08:04;11.75;;;7.13;;
16101;SDS011;56411;52.964;10.540;2023-05-07T11:10:47;12.07;;;7.22;;
16101;SDS011;56411;52.964;10.540;2023-05-07T11:13:15;11.80;;;6.65;;
16101;SDS011;56411;52.964;10.540;2023-05-07T11:15:49;11.35;;;6.97;;
16101;SDS011;56411;52.964;10.540;2023-05-07T11:18:47;11.43;;;6.57;;
16101;SDS011;56411;52.964;10.540;2023-05-07T11:21:31;12.05;;;7.60;;
16101;SDS011;56411;52.964;10.540;2023-05-07T11:24:00;11.95;;;7.38;;
16101;SDS011;56411;52.964;10.540;2023-05-07T11:26:28;13.32;;;7.45;;
16101;SDS011;56411;52.964;10.540;2023-05-07T11:28:57;11.88;;;6.90;;
16101;SDS011;56411;52.964;10.540;2023-05-07T11:31:27;12.13;;;7.30;;
16101;SDS011;56411;52.964;10.540;2023-05-07T11:33:56;12.15;;;7.13;;
16101;SDS011;56411;52.964;10.540;2023-05-07T11:36:24;12.57;;;7.18;;
16101;SDS011;56411;52.964;10.540;2023-05-07T11:38:54;13.15;;;7.57;;
16101;SDS011;56411;52.964;10.540;2023-05-07T11:41:21;12.88;;;7.60;;
16101;SDS011;56411;52.964;10.540;2023-05-07T11:43:55;13.27;;;7.47;;
16101;SDS011;56411;52.964;10.540;2023-05-07T11:46:23;12.93;;;7.75;;
16101;SDS011;56411;52.964;10.540;2023-05-07T11:48:51;14.25;;;8.27;;
16101;SDS011;56411;52.964;10.540;2023-05-07T11:51:20;14.68;;;7.50;;
16101;SDS011;56411;52.964;10.540;2023-05-07T11:53:51;12.65;;;7.65;;
16101;SDS011;56411;52.964;10.540;2023-05-07T11:56:19;11.85;;;7.05;;
16101;SDS011;56411;52.964;10.540;2023-05-07T11:58:47;11.63;;;7.30;;
16101;SDS011;56411;52.964;10.540;2023-05-07T12:01:17;13.68;;;7.97;;
16101;SDS011;56411;52.964;10.540;2023-05-07T12:03:44;11.57;;;7.60;;
16101;SDS011;56411;52.964;10.540;2023-05-07T12:06:14;12.48;;;7.85;;
16101;SDS011;56411;52.964;10.540;2023-05-07T12:08:46;12.48;;;7.55;;
16101;SDS011;56411;52.964;10.540;2023-05-07T12:11:14;15.15;;;8.77;;
16101;SDS011;56411;52.964;10.540;2023-05-07T12:13:43;12.80;;;7.75;;
16101;SDS011;56411;52.964;10.540;2023-05-07T12:16:16;13.57;;;8.45;;
16101;SDS011;56411;52.964;10.540;2023-05-07T12:18:43;11.57;;;7.65;;
16101;SDS011;56411;52.964;10.540;2023-05-07T12:21:23;12.93;;;7.45;;
16101;SDS011;56411;52.964;10.540;2023-05-07T12:24:22;11.82;;;7.63;;
16101;SDS011;56411;52.964;10.540;2023-05-07T12:27:36;11.55;;;7.07;;
16101;SDS011;56411;52.964;10.540;2023-05-07T12:30:19;10.15;;;6.43;;
16101;SDS011;56411;52.964;10.540;2023-05-07T12:32:52;9.95;;;6.20;;
16101;SDS011;56411;52.964;10.540;2023-05-07T12:35:27;10.98;;;6.60;;
16101;SDS011;56411;52.964;10.540;2023-05-07T12:38:06;10.90;;;6.38;;
16101;SDS011;56411;52.964;10.540;2023-05-07T12:40:37;10.40;;;6.10;;
16101;SDS011;56411;52.964;10.540;2023-05-07T12:43:06;12.07;;;6.32;;
16101;SDS011;56411;52.964;10.540;2023-05-07T12:45:36;10.68;;;6.28;;
16101;SDS011;56411;52.964;10.540;2023-05-07T12:48:04;11.32;;;6.70;;
16101;SDS011;56411;52.964;10.540;2023-05-07T12:50:32;10.52;;;6.40;;
16101;SDS011;56411;52.964;10.540;2023-05-07T12:53:00;13.25;;;7.07;;
16101;SDS011;56411;52.964;10.540;2023-05-07T12:55:31;11.57;;;6.65;;
16101;SDS011;56411;52.964;10.540;2023-05-07T12:58:01;11.75;;;6.60;;
16101;SDS011;56411;52.964;10.540;2023-05-07T13:00:32;12.23;;;6.75;;
16101;SDS011;56411;52.964;10.540;2023-05-07T13:03:03;11.70;;;6.75;;
16101;SDS011;56411;52.964;10.540;2023-05-07T13:05:35;10.02;;;6.22;;
16101;SDS011;56411;52.964;10.540;2023-05-07T13:08:05;10.65;;;6.35;;
16101;SDS011;56411;52.964;10.540;2023-05-07T13:10:34;11.10;;;6.32;;
16101;SDS011;56411;52.964;10.540;2023-05-07T13:13:03;11.15;;;6.10;;
16101;SDS011;56411;52.964;10.540;2023-05-07T13:15:35;10.50;;;5.90;;
16101;SDS011;56411;52.964;10.540;2023-05-07T13:18:07;10.75;;;5.80;;
16101;SDS011;56411;52.964;10.540;2023-05-07T13:20:39;11.32;;;5.85;;
16101;SDS011;56411;52.964;10.540;2023-05-07T13:23:17;9.30;;;5.20;;
16101;SDS011;56411;52.964;10.540;2023-05-07T13:25:47;11.05;;;5.38;;
16101;SDS011;56411;52.964;10.540;2023-05-07T13:28:21;8.70;;;4.90;;
16101;SDS011;56411;52.964;10.540;2023-05-07T13:30:57;7.78;;;4.30;;
16101;SDS011;56411;52.964;10.540;2023-05-07T13:34:00;6.68;;;4.15;;
16101;SDS011;56411;52.964;10.540;2023-05-07T13:36:50;8.68;;;4.50;;
16101;SDS011;56411;52.964;10.540;2023-05-07T13:39:37;8.18;;;4.65;;
16101;SDS011;56411;52.964;10.540;2023-05-07T13:42:05;7.95;;;4.50;;
16101;SDS011;56411;52.964;10.540;2023-05-07T13:44:37;7.68;;;4.15;;
16101;SDS011;56411;52.964;10.540;2023-05-07T13:47:04;7.93;;;4.43;;
16101;SDS011;56411;52.964;10.540;2023-05-07T13:49:32;8.02;;;4.18;;
16101;SDS011;56411;52.964;10.540;2023-05-07T13:51:59;9.95;;;5.07;;
16101;SDS011;56411;52.964;10.540;2023-05-07T13:54:26;8.35;;;4.78;;
16101;SDS011;56411;52.964;10.540;2023-05-07T13:56:55;7.53;;;4.60;;
16101;SDS011;56411;52.964;10.540;2023-05-07T13:59:22;9.23;;;4.75;;
16101;SDS011;56411;52.964;10.540;2023-05-07T14:01:51;10.10;;;5.00;;
16101;SDS011;56411;52.964;10.540;2023-05-07T14:04:20;10.10;;;4.93;;
16101;SDS011;56411;52.964;10.540;2023-05-07T14:06:51;8.38;;;5.13;;
16101;SDS011;56411;52.964;10.540;2023-05-07T14:09:21;7.70;;;4.43;;
16101;SDS011;56411;52.964;10.540;2023-05-07T14:11:50;8.38;;;4.18;;
16101;SDS011;56411;52.964;10.540;2023-05-07T14:14:18;6.63;;;4.32;;
16101;SDS011;56411;52.964;10.540;2023-05-07T14:16:51;9.38;;;4.65;;
16101;SDS011;56411;52.964;10.540;2023-05-07T14:19:37;7.88;;;4.35;;
16101;SDS011;56411;52.964;10.540;2023-05-07T14:22:04;7.32;;;4.35;;
16101;SDS011;56411;52.964;10.540;2023-05-07T14:24:31;7.35;;;4.30;;
16101;SDS011;56411;52.964;10.540;2023-05-07T14:26:59;8.63;;;4.60;;
16101;SDS011;56411;52.964;10.540;2023-05-07T14:29:27;6.50;;;3.80;;